sensor_id;sensor_type;location;lat;lon;timestamp;P1;durP1;ratioP1;P2;durP2;ratioP2
40609;SDS011;26316;55.976;37.140;2023-07-28T00:00:08;10.63;;;7.90;;
40609;SDS011;26316;55.976;37.140;2023-07-28T00:02:41;10.55;;;7.72;;
40609;SDS011;26316;55.976;37.140;2023-07-28T00:05:07;12.15;;;8.30;;
40609;SDS011;26316;55.976;37.140;2023-07-28T00:07:32;8.65;;;7.70;;
40609;SDS011;26316;55.976;37.140;2023-07-28T00:10:01;9.02;;;8.13;;
40609;SDS011;26316;55.976;37.140;2023-07-28T00:12:29;9.40;;;8.38;;
40609;SDS011;26316;55.976;37.140;2023-07-28T00:14:55;9.52;;;8.63;;
40609;SDS011;26316;55.976;37.140;2023-07-28T00:17:21;10.77;;;7.90;;
40609;SDS011;26316;55.976;37.140;2023-07-28T00:19:47;12.70;;;9.00;;
40609;SDS011;26316;55.976;37.140;2023-07-28T00:22:13;10.82;;;8.07;;
40609;SDS011;26316;55.976;37.140;2023-07-28T00:24:38;9.80;;;8.18;;
40609;SDS011;26316;55.976;37.140;2023-07-28T00:27:04;10.93;;;8.45;;
40609;SDS011;26316;55.976;37.140;2023-07-28T00:29:30;10.88;;;8.80;;
40609;SDS011;26316;55.976;37.140;2023-07-28T00:31:56;12.73;;;8.18;;
40609;SDS011;26316;55.976;37.140;2023-07-28T00:34:21;11.00;;;9.13;;
40609;SDS011;26316;55.976;37.140;2023-07-28T00:36:47;15.45;;;8.77;;
40609;SDS011;26316;55.976;37.140;2023-07-28T00:39:13;12.82;;;8.52;;
40609;SDS011;26316;55.976;37.140;2023-07-28T00:41:39;10.23;;;8.80;;
40609;SDS011;26316;55.976;37.140;2023-07-28T00:44:05;10.77;;;9.68;;
40609;SDS011;26316;55.976;37.140;2023-07-28T00:46:31;10.77;;;8.80;;
40609;SDS011;26316;55.976;37.140;2023-07-28T00:48:57;14.52;;;9.18;;
40609;SDS011;26316;55.976;37.140;2023-07-28T00:51:23;11.05;;;8.30;;
40609;SDS011;26316;55.976;37.140;2023-07-28T00:53:49;10.93;;;8.65;;
40609;SDS011;26316;55.976;37.140;2023-07-28T00:56:17;11.63;;;7.93;;
40609;SDS011;26316;55.976;37.140;2023-07-28T00:58:43;9.50;;;8.43;;
40609;SDS011;26316;55.976;37.140;2023-07-28T01:01:09;10.93;;;9.38;;
40609;SDS011;26316;55.976;37.140;2023-07-28T01:03:34;9.57;;;8.57;;
40609;SDS011;26316;55.976;37.140;2023-07-28T01:08:28;9.85;;;8.50;;
40609;SDS011;26316;55.976;37.140;2023-07-28T01:10:59;9.80;;;8.80;;
40609;SDS011;26316;55.976;37.140;2023-07-28T01:13:25;11.75;;;9.30;;
40609;SDS011;26316;55.976;37.140;2023-07-28T01:15:51;9.98;;;8.98;;
40609;SDS011;26316;55.976;37.140;2023-07-28T01:18:16;10.07;;;9.07;;
40609;SDS011;26316;55.976;37.140;2023-07-28T01:20:42;9.23;;;8.40;;
40609;SDS011;26316;55.976;37.140;2023-07-28T01:23:17;9.82;;;8.43;;
40609;SDS011;26316;55.976;37.140;2023-07-28T01:28:32;10.13;;;9.13;;
40609;SDS011;26316;55.976;37.140;2023-07-28T01:31:05;9.95;;;8.98;;
40609;SDS011;26316;55.976;37.140;2023-07-28T01:33:32;9.32;;;8.43;;
40609;SDS011;26316;55.976;37.140;2023-07-28T01:35:58;10.38;;;8.30;;
40609;SDS011;26316;55.976;37.140;2023-07-28T01:38:27;9.73;;;8.23;;
40609;SDS011;26316;55.976;37.140;2023-07-28T01:40:53;9.45;;;8.52;;
40609;SDS011;26316;55.976;37.140;2023-07-28T01:43:19;9.98;;;8.50;;
40609;SDS011;26316;55.976;37.140;2023-07-28T01:45:44;9.07;;;8.18;;
40609;SDS011;26316;55.976;37.140;2023-07-28T01:48:10;9.60;;;8.70;;
40609;SDS011;26316;55.976;37.140;2023-07-28T01:50:36;12.18;;;7.78;;
40609;SDS011;26316;55.976;37.140;2023-07-28T01:53:03;10.10;;;8.75;;
40609;SDS011;26316;55.976;37.140;2023-07-28T01:55:29;11.15;;;7.82;;
40609;SDS011;26316;55.976;37.140;2023-07-28T01:57:56;12.70;;;8.63;;
40609;SDS011;26316;55.976;37.140;2023-07-28T02:00:23;12.18;;;8.90;;
40609;SDS011;26316;55.976;37.140;2023-07-28T02:02:50;15.25;;;9.10;;
40609;SDS011;26316;55.976;37.140;2023-07-28T02:05:16;12.57;;;8.18;;
40609;SDS011;26316;55.976;37.140;2023-07-28T02:07:42;13.88;;;8.45;;
40609;SDS011;26316;55.976;37.140;2023-07-28T02:10:08;10.77;;;8.52;;
40609;SDS011;26316;55.976;37.140;2023-07-28T02:12:36;10.73;;;9.23;;
40609;SDS011;26316;55.976;37.140;2023-07-28T02:15:03;14.35;;;9.23;;
40609;SDS011;26316;55.976;37.140;2023-07-28T02:17:30;12.15;;;9.02;;
40609;SDS011;26316;55.976;37.140;2023-07-28T02:19:56;12.60;;;9.00;;
40609;SDS011;26316;55.976;37.140;2023-07-28T02:22:22;10.45;;;8.60;;
40609;SDS011;26316;55.976;37.140;2023-07-28T02:24:47;11.75;;;8.65;;
40609;SDS011;26316;55.976;37.140;2023-07-28T02:27:13;10.40;;;9.27;;
40609;SDS011;26316;55.976;37.140;2023-07-28T02:29:39;12.48;;;8.63;;
40609;SDS011;26316;55.976;37.140;2023-07-28T02:32:05;14.07;;;9.30;;
40609;SDS011;26316;55.976;37.140;2023-07-28T02:34:31;8.73;;;7.93;;
40609;SDS011;26316;55.976;37.140;2023-07-28T02:36:57;12.30;;;8.55;;
40609;SDS011;26316;55.976;37.140;2023-07-28T02:39:23;12.55;;;8.73;;
40609;SDS011;26316;55.976;37.140;2023-07-28T02:41:48;13.27;;;8.52;;
40609;SDS011;26316;55.976;37.140;2023-07-28T02:44:14;11.48;;;8.77;;
40609;SDS011;26316;55.976;37.140;2023-07-28T02:46:40;10.52;;;7.55;;
40609;SDS011;26316;55.976;37.140;2023-07-28T02:49:06;9.43;;;8.15;;
40609;SDS011;26316;55.976;37.140;2023-07-28T02:51:32;10.48;;;7.78;;
40609;SDS011;26316;55.976;37.140;2023-07-28T02:54:01;10.07;;;7.97;;
40609;SDS011;26316;55.976;37.140;2023-07-28T02:56:27;11.85;;;8.15;;
40609;SDS011;26316;55.976;37.140;2023-07-28T02:58:53;10.10;;;7.72;;
40609;SDS011;26316;55.976;37.140;2023-07-28T03:01:19;12.93;;;8.27;;
40609;SDS011;26316;55.976;37.140;2023-07-28T03:03:47;12.98;;;8.63;;
40609;SDS011;26316;55.976;37.140;2023-07-28T03:06:13;10.50;;;8.10;;
40609;SDS011;26316;55.976;37.140;2023-07-28T03:08:41;11.57;;;8.07;;
40609;SDS011;26316;55.976;37.140;2023-07-28T03:11:25;9.52;;;7.60;;
40609;SDS011;26316;55.976;37.140;2023-07-28T03:13:51;9.45;;;7.97;;
40609;SDS011;26316;55.976;37.140;2023-07-28T03:16:16;9.57;;;8.65;;
40609;SDS011;26316;55.976;37.140;2023-07-28T03:18:42;10.00;;;8.65;;
40609;SDS011;26316;55.976;37.140;2023-07-28T03:21:08;10.05;;;8.00;;
40609;SDS011;26316;55.976;37.140;2023-07-28T03:23:34;12.77;;;8.30;;
40609;SDS011;26316;55.976;37.140;2023-07-28T03:26:00;10.82;;;7.90;;
40609;SDS011;26316;55.976;37.140;2023-07-28T03:28:26;8.82;;;8.02;;
40609;SDS011;26316;55.976;37.140;2023-07-28T03:30:51;9.75;;;8.27;;
40609;SDS011;26316;55.976;37.140;2023-07-28T03:33:17;14.00;;;8.02;;
40609;SDS011;26316;55.976;37.140;2023-07-28T03:35:43;8.85;;;7.88;;
40609;SDS011;26316;55.976;37.140;2023-07-28T03:38:10;9.05;;;8.15;;
40609;SDS011;26316;55.976;37.140;2023-07-28T03:40:37;10.48;;;8.55;;
40609;SDS011;26316;55.976;37.140;2023-07-28T03:43:03;13.10;;;8.73;;
40609;SDS011;26316;55.976;37.140;2023-07-28T03:45:29;9.23;;;8.10;;
40609;SDS011;26316;55.976;37.140;2023-07-28T03:47:55;10.77;;;8.15;;
40609;SDS011;26316;55.976;37.140;2023-07-28T03:50:21;10.13;;;8.18;;
40609;SDS011;26316;55.976;37.140;2023-07-28T03:52:48;10.68;;;7.80;;
40609;SDS011;26316;55.976;37.140;2023-07-28T03:55:13;11.77;;;8.77;;
40609;SDS011;26316;55.976;37.140;2023-07-28T03:57:39;10.05;;;8.65;;
40609;SDS011;26316;55.976;37.140;2023-07-28T04:00:05;21.90;;;9.18;;
40609;SDS011;26316;55.976;37.140;2023-07-28T04:02:38;11.75;;;9.70;;
40609;SDS011;26316;55.976;37.140;2023-07-28T04:05:04;19.90;;;8.65;;
40609;SDS011;26316;55.976;37.140;2023-07-28T04:07:30;10.68;;;8.30;;
40609;SDS011;26316;55.976;37.140;2023-07-28T04:09:56;15.52;;;8.60;;
40609;SDS011;26316;55.976;37.140;2023-07-28T04:12:22;14.90;;;8.75;;
40609;SDS011;26316;55.976;37.140;2023-07-28T04:14:48;12.95;;;8.73;;
40609;SDS011;26316;55.976;37.140;2023-07-28T04:17:13;10.98;;;8.18;;
40609;SDS011;26316;55.976;37.140;2023-07-28T04:19:39;12.07;;;8.45;;
40609;SDS011;26316;55.976;37.140;2023-07-28T04:22:05;12.00;;;8.50;;
40609;SDS011;26316;55.976;37.140;2023-07-28T04:24:32;11.13;;;9.07;;
40609;SDS011;26316;55.976;37.140;2023-07-28T04:26:58;18.08;;;8.55;;
40609;SDS011;26316;55.976;37.140;2023-07-28T04:29:24;17.60;;;8.73;;
40609;SDS011;26316;55.976;37.140;2023-07-28T04:31:50;14.73;;;7.88;;
40609;SDS011;26316;55.976;37.140;2023-07-28T04:34:23;22.67;;;9.82;;
40609;SDS011;26316;55.976;37.140;2023-07-28T04:37:24;15.10;;;9.32;;
40609;SDS011;26316;55.976;37.140;2023-07-28T04:39:55;16.67;;;9.05;;
40609;SDS011;26316;55.976;37.140;2023-07-28T04:42:21;14.18;;;9.32;;
40609;SDS011;26316;55.976;37.140;2023-07-28T04:44:47;17.67;;;11.30;;
40609;SDS011;26316;55.976;37.140;2023-07-28T04:47:15;18.35;;;8.98;;
40609;SDS011;26316;55.976;37.140;2023-07-28T04:49:41;14.55;;;9.32;;
40609;SDS011;26316;55.976;37.140;2023-07-28T04:52:28;14.77;;;10.85;;
40609;SDS011;26316;55.976;37.140;2023-07-28T04:55:20;17.85;;;11.93;;
40609;SDS011;26316;55.976;37.140;2023-07-28T04:57:46;26.08;;;13.18;;
40609;SDS011;26316;55.976;37.140;2023-07-28T05:00:12;22.98;;;13.75;;
40609;SDS011;26316;55.976;37.140;2023-07-28T05:02:38;19.02;;;11.90;;
40609;SDS011;26316;55.976;37.140;2023-07-28T05:05:05;21.83;;;12.25;;
40609;SDS011;26316;55.976;37.140;2023-07-28T05:07:31;17.55;;;12.10;;
40609;SDS011;26316;55.976;37.140;2023-07-28T05:09:56;18.58;;;11.20;;
40609;SDS011;26316;55.976;37.140;2023-07-28T05:12:25;15.18;;;11.00;;
40609;SDS011;26316;55.976;37.140;2023-07-28T05:14:51;15.15;;;11.45;;
40609;SDS011;26316;55.976;37.140;2023-07-28T05:17:20;16.63;;;10.93;;
40609;SDS011;26316;55.976;37.140;2023-07-28T05:20:12;18.13;;;10.50;;
40609;SDS011;26316;55.976;37.140;2023-07-28T05:22:54;13.23;;;9.73;;
40609;SDS011;26316;55.976;37.140;2023-07-28T05:25:24;15.68;;;10.77;;
40609;SDS011;26316;55.976;37.140;2023-07-28T05:27:52;13.38;;;10.13;;
40609;SDS011;26316;55.976;37.140;2023-07-28T05:30:19;14.35;;;9.95;;
40609;SDS011;26316;55.976;37.140;2023-07-28T05:32:46;11.50;;;9.80;;
40609;SDS011;26316;55.976;37.140;2023-07-28T05:35:19;11.18;;;9.95;;
40609;SDS011;26316;55.976;37.140;2023-07-28T05:37:46;10.07;;;9.07;;
40609;SDS011;26316;55.976;37.140;2023-07-28T05:40:12;10.90;;;9.50;;
40609;SDS011;26316;55.976;37.140;2023-07-28T05:42:39;10.95;;;9.80;;
40609;SDS011;26316;55.976;37.140;2023-07-28T05:45:05;11.10;;;9.98;;
40609;SDS011;26316;55.976;37.140;2023-07-28T05:47:32;15.25;;;9.68;;
40609;SDS011;26316;55.976;37.140;2023-07-28T05:49:58;11.75;;;9.70;;
40609;SDS011;26316;55.976;37.140;2023-07-28T05:52:24;11.20;;;9.20;;
40609;SDS011;26316;55.976;37.140;2023-07-28T05:54:50;10.43;;;9.35;;
40609;SDS011;26316;55.976;37.140;2023-07-28T05:57:16;11.88;;;9.27;;
40609;SDS011;26316;55.976;37.140;2023-07-28T05:59:42;10.55;;;9.38;;
40609;SDS011;26316;55.976;37.140;2023-07-28T06:02:07;11.55;;;9.73;;
40609;SDS011;26316;55.976;37.140;2023-07-28T06:04:59;13.45;;;9.85;;
40609;SDS011;26316;55.976;37.140;2023-07-28T06:07:25;10.80;;;9.25;;
40609;SDS011;26316;55.976;37.140;2023-07-28T06:09:52;14.55;;;9.88;;
40609;SDS011;26316;55.976;37.140;2023-07-28T06:12:19;13.50;;;9.68;;
40609;SDS011;26316;55.976;37.140;2023-07-28T06:14:49;9.95;;;9.05;;
40609;SDS011;26316;55.976;37.140;2023-07-28T06:17:15;10.57;;;8.60;;
40609;SDS011;26316;55.976;37.140;2023-07-28T06:19:42;12.57;;;9.98;;
40609;SDS011;26316;55.976;37.140;2023-07-28T06:22:07;14.07;;;9.13;;
40609;SDS011;26316;55.976;37.140;2023-07-28T06:24:38;11.48;;;9.10;;
40609;SDS011;26316;55.976;37.140;2023-07-28T06:27:04;9.90;;;8.90;;
40609;SDS011;26316;55.976;37.140;2023-07-28T06:29:35;10.02;;;9.02;;
40609;SDS011;26316;55.976;37.140;2023-07-28T06:32:01;15.00;;;9.00;;
40609;SDS011;26316;55.976;37.140;2023-07-28T06:34:27;11.35;;;9.73;;
40609;SDS011;26316;55.976;37.140;2023-07-28T06:36:52;9.85;;;8.82;;
40609;SDS011;26316;55.976;37.140;2023-07-28T06:39:18;10.88;;;9.73;;
40609;SDS011;26316;55.976;37.140;2023-07-28T06:41:44;9.82;;;8.57;;
40609;SDS011;26316;55.976;37.140;2023-07-28T06:44:12;12.23;;;9.43;;
40609;SDS011;26316;55.976;37.140;2023-07-28T06:46:38;10.07;;;9.10;;
40609;SDS011;26316;55.976;37.140;2023-07-28T06:49:03;10.50;;;9.30;;
40609;SDS011;26316;55.976;37.140;2023-07-28T06:51:29;10.48;;;9.20;;
40609;SDS011;26316;55.976;37.140;2023-07-28T06:53:55;10.32;;;9.43;;
40609;SDS011;26316;55.976;37.140;2023-07-28T06:56:23;11.13;;;9.57;;
40609;SDS011;26316;55.976;37.140;2023-07-28T06:58:50;12.32;;;10.25;;
40609;SDS011;26316;55.976;37.140;2023-07-28T07:01:16;11.20;;;9.48;;
40609;SDS011;26316;55.976;37.140;2023-07-28T07:03:43;10.80;;;9.70;;
40609;SDS011;26316;55.976;37.140;2023-07-28T07:06:09;9.90;;;8.90;;
40609;SDS011;26316;55.976;37.140;2023-07-28T07:08:35;10.80;;;9.15;;
40609;SDS011;26316;55.976;37.140;2023-07-28T07:11:01;10.95;;;9.20;;
40609;SDS011;26316;55.976;37.140;2023-07-28T07:13:27;11.77;;;9.13;;
40609;SDS011;26316;55.976;37.140;2023-07-28T07:15:53;9.63;;;8.73;;
40609;SDS011;26316;55.976;37.140;2023-07-28T07:18:19;12.73;;;9.38;;
40609;SDS011;26316;55.976;37.140;2023-07-28T07:20:45;12.38;;;8.63;;
40609;SDS011;26316;55.976;37.140;2023-07-28T07:23:11;12.13;;;8.40;;
40609;SDS011;26316;55.976;37.140;2023-07-28T07:25:37;8.45;;;7.55;;
40609;SDS011;26316;55.976;37.140;2023-07-28T07:28:03;8.90;;;7.82;;
40609;SDS011;26316;55.976;37.140;2023-07-28T07:30:31;8.23;;;7.35;;
40609;SDS011;26316;55.976;37.140;2023-07-28T07:35:24;9.00;;;7.65;;
40609;SDS011;26316;55.976;37.140;2023-07-28T07:37:50;10.75;;;8.20;;
40609;SDS011;26316;55.976;37.140;2023-07-28T07:40:16;14.27;;;7.53;;
40609;SDS011;26316;55.976;37.140;2023-07-28T07:42:43;7.57;;;6.88;;
40609;SDS011;26316;55.976;37.140;2023-07-28T07:45:11;13.77;;;7.40;;
40609;SDS011;26316;55.976;37.140;2023-07-28T07:47:38;8.93;;;7.18;;
40609;SDS011;26316;55.976;37.140;2023-07-28T07:50:05;10.43;;;7.15;;
40609;SDS011;26316;55.976;37.140;2023-07-28T07:52:37;13.93;;;6.97;;
40609;SDS011;26316;55.976;37.140;2023-07-28T07:55:03;8.07;;;7.13;;
40609;SDS011;26316;55.976;37.140;2023-07-28T07:57:31;9.50;;;7.10;;
40609;SDS011;26316;55.976;37.140;2023-07-28T07:59:58;8.15;;;7.10;;
40609;SDS011;26316;55.976;37.140;2023-07-28T08:02:24;7.65;;;6.60;;
40609;SDS011;26316;55.976;37.140;2023-07-28T08:04:51;7.38;;;6.68;;
40609;SDS011;26316;55.976;37.140;2023-07-28T08:07:18;8.20;;;6.53;;
40609;SDS011;26316;55.976;37.140;2023-07-28T08:09:45;8.75;;;6.88;;
40609;SDS011;26316;55.976;37.140;2023-07-28T08:12:11;10.18;;;6.85;;
40609;SDS011;26316;55.976;37.140;2023-07-28T08:14:37;7.03;;;6.35;;
40609;SDS011;26316;55.976;37.140;2023-07-28T08:17:03;7.60;;;6.80;;
40609;SDS011;26316;55.976;37.140;2023-07-28T08:19:29;11.63;;;7.60;;
40609;SDS011;26316;55.976;37.140;2023-07-28T08:21:54;9.02;;;6.90;;
40609;SDS011;26316;55.976;37.140;2023-07-28T08:24:20;8.18;;;7.15;;
40609;SDS011;26316;55.976;37.140;2023-07-28T08:26:46;7.75;;;6.93;;
40609;SDS011;26316;55.976;37.140;2023-07-28T08:29:11;8.43;;;7.00;;
40609;SDS011;26316;55.976;37.140;2023-07-28T08:31:37;7.93;;;6.82;;
40609;SDS011;26316;55.976;37.140;2023-07-28T08:34:03;9.07;;;6.60;;
40609;SDS011;26316;55.976;37.140;2023-07-28T08:36:28;7.05;;;6.35;;
40609;SDS011;26316;55.976;37.140;2023-07-28T08:38:54;8.52;;;6.38;;
40609;SDS011;26316;55.976;37.140;2023-07-28T08:41:20;10.23;;;6.80;;
40609;SDS011;26316;55.976;37.140;2023-07-28T08:43:46;9.10;;;6.63;;
40609;SDS011;26316;55.976;37.140;2023-07-28T08:46:11;10.38;;;6.28;;
40609;SDS011;26316;55.976;37.140;2023-07-28T08:48:38;7.68;;;6.05;;
40609;SDS011;26316;55.976;37.140;2023-07-28T08:51:04;7.85;;;6.35;;
40609;SDS011;26316;55.976;37.140;2023-07-28T08:53:30;8.77;;;6.07;;
40609;SDS011;26316;55.976;37.140;2023-07-28T08:55:56;12.02;;;5.97;;
40609;SDS011;26316;55.976;37.140;2023-07-28T08:58:22;6.03;;;5.43;;
40609;SDS011;26316;55.976;37.140;2023-07-28T09:00:50;8.75;;;5.55;;
40609;SDS011;26316;55.976;37.140;2023-07-28T09:03:17;6.97;;;5.82;;
40609;SDS011;26316;55.976;37.140;2023-07-28T09:05:43;6.07;;;5.55;;
40609;SDS011;26316;55.976;37.140;2023-07-28T09:08:12;7.47;;;5.38;;
40609;SDS011;26316;55.976;37.140;2023-07-28T09:10:45;6.35;;;5.80;;
40609;SDS011;26316;55.976;37.140;2023-07-28T09:13:14;6.93;;;5.75;;
40609;SDS011;26316;55.976;37.140;2023-07-28T09:15:41;12.60;;;5.45;;
40609;SDS011;26316;55.976;37.140;2023-07-28T09:18:07;6.40;;;5.80;;
40609;SDS011;26316;55.976;37.140;2023-07-28T09:20:36;6.90;;;5.57;;
40609;SDS011;26316;55.976;37.140;2023-07-28T09:23:02;5.75;;;5.10;;
40609;SDS011;26316;55.976;37.140;2023-07-28T09:25:29;6.18;;;5.68;;
40609;SDS011;26316;55.976;37.140;2023-07-28T09:27:55;7.80;;;5.45;;
40609;SDS011;26316;55.976;37.140;2023-07-28T09:30:22;6.13;;;5.50;;
40609;SDS011;26316;55.976;37.140;2023-07-28T09:32:49;5.68;;;4.90;;
40609;SDS011;26316;55.976;37.140;2023-07-28T09:35:16;5.75;;;5.25;;
40609;SDS011;26316;55.976;37.140;2023-07-28T09:37:44;10.63;;;4.82;;
40609;SDS011;26316;55.976;37.140;2023-07-28T09:40:15;5.72;;;5.20;;
40609;SDS011;26316;55.976;37.140;2023-07-28T09:42:43;9.25;;;5.07;;
40609;SDS011;26316;55.976;37.140;2023-07-28T09:45:10;12.57;;;5.72;;
40609;SDS011;26316;55.976;37.140;2023-07-28T09:47:37;7.35;;;5.30;;
40609;SDS011;26316;55.976;37.140;2023-07-28T09:50:04;8.45;;;5.38;;
40609;SDS011;26316;55.976;37.140;2023-07-28T09:52:39;8.20;;;5.18;;
40609;SDS011;26316;55.976;37.140;2023-07-28T09:55:08;7.70;;;5.43;;
40609;SDS011;26316;55.976;37.140;2023-07-28T09:57:41;6.78;;;5.43;;
40609;SDS011;26316;55.976;37.140;2023-07-28T10:00:13;5.65;;;4.80;;
40609;SDS011;26316;55.976;37.140;2023-07-28T10:02:40;5.50;;;5.00;;
40609;SDS011;26316;55.976;37.140;2023-07-28T10:05:06;9.35;;;5.45;;
40609;SDS011;26316;55.976;37.140;2023-07-28T10:07:37;5.10;;;4.70;;
40609;SDS011;26316;55.976;37.140;2023-07-28T10:10:06;5.63;;;5.05;;
40609;SDS011;26316;55.976;37.140;2023-07-28T10:15:16;5.80;;;5.15;;
40609;SDS011;26316;55.976;37.140;2023-07-28T10:17:47;6.97;;;5.20;;
40609;SDS011;26316;55.976;37.140;2023-07-28T10:20:48;6.00;;;5.13;;
40609;SDS011;26316;55.976;37.140;2023-07-28T10:23:11;6.13;;;4.72;;
40609;SDS011;26316;55.976;37.140;2023-07-28T10:25:39;5.30;;;4.80;;
40609;SDS011;26316;55.976;37.140;2023-07-28T10:28:06;5.45;;;5.05;;
40609;SDS011;26316;55.976;37.140;2023-07-28T10:30:37;5.18;;;4.60;;
40609;SDS011;26316;55.976;37.140;2023-07-28T10:33:05;9.07;;;4.90;;
40609;SDS011;26316;55.976;37.140;2023-07-28T10:35:31;6.05;;;4.70;;
40609;SDS011;26316;55.976;37.140;2023-07-28T10:38:23;4.88;;;4.47;;
40609;SDS011;26316;55.976;37.140;2023-07-28T10:41:05;5.10;;;4.57;;
40609;SDS011;26316;55.976;37.140;2023-07-28T10:43:32;5.47;;;4.97;;
40609;SDS011;26316;55.976;37.140;2023-07-28T10:45:59;4.82;;;4.43;;
40609;SDS011;26316;55.976;37.140;2023-07-28T10:48:25;5.18;;;4.75;;
40609;SDS011;26316;55.976;37.140;2023-07-28T10:50:51;6.57;;;4.53;;
40609;SDS011;26316;55.976;37.140;2023-07-28T10:53:17;4.90;;;4.45;;
40609;SDS011;26316;55.976;37.140;2023-07-28T10:55:43;4.18;;;3.78;;
40609;SDS011;26316;55.976;37.140;2023-07-28T10:58:09;4.13;;;3.65;;
40609;SDS011;26316;55.976;37.140;2023-07-28T11:00:35;4.03;;;3.72;;
40609;SDS011;26316;55.976;37.140;2023-07-28T11:03:03;5.93;;;3.95;;
40609;SDS011;26316;55.976;37.140;2023-07-28T11:05:29;4.05;;;3.65;;
40609;SDS011;26316;55.976;37.140;2023-07-28T11:08:02;3.72;;;3.30;;
40609;SDS011;26316;55.976;37.140;2023-07-28T11:10:29;3.90;;;2.80;;
40609;SDS011;26316;55.976;37.140;2023-07-28T11:12:57;2.97;;;2.78;;
40609;SDS011;26316;55.976;37.140;2023-07-28T11:15:24;2.67;;;2.47;;
40609;SDS011;26316;55.976;37.140;2023-07-28T11:17:50;3.28;;;2.70;;
40609;SDS011;26316;55.976;37.140;2023-07-28T11:20:20;3.28;;;2.60;;
40609;SDS011;26316;55.976;37.140;2023-07-28T11:22:54;3.05;;;2.70;;
40609;SDS011;26316;55.976;37.140;2023-07-28T11:25:29;3.13;;;2.85;;
40609;SDS011;26316;55.976;37.140;2023-07-28T11:27:56;2.65;;;2.45;;
40609;SDS011;26316;55.976;37.140;2023-07-28T11:30:23;2.45;;;2.30;;
40609;SDS011;26316;55.976;37.140;2023-07-28T11:32:50;2.60;;;2.42;;
40609;SDS011;26316;55.976;37.140;2023-07-28T11:35:17;2.60;;;2.10;;
40609;SDS011;26316;55.976;37.140;2023-07-28T11:37:49;2.40;;;2.20;;
40609;SDS011;26316;55.976;37.140;2023-07-28T11:40:17;2.78;;;2.58;;
40609;SDS011;26316;55.976;37.140;2023-07-28T11:42:44;2.60;;;2.40;;
40609;SDS011;26316;55.976;37.140;2023-07-28T11:45:12;2.58;;;2.30;;
40609;SDS011;26316;55.976;37.140;2023-07-28T11:47:39;2.63;;;2.00;;
40609;SDS011;26316;55.976;37.140;2023-07-28T11:50:05;2.20;;;2.10;;
40609;SDS011;26316;55.976;37.140;2023-07-28T11:52:35;2.33;;;2.10;;
40609;SDS011;26316;55.976;37.140;2023-07-28T11:55:04;2.90;;;2.25;;
40609;SDS011;26316;55.976;37.140;2023-07-28T11:57:31;2.80;;;2.10;;
40609;SDS011;26316;55.976;37.140;2023-07-28T12:00:00;2.78;;;2.40;;
40609;SDS011;26316;55.976;37.140;2023-07-28T12:02:31;2.50;;;1.90;;
40609;SDS011;26316;55.976;37.140;2023-07-28T12:04:59;2.15;;;1.92;;
40609;SDS011;26316;55.976;37.140;2023-07-28T12:07:28;4.03;;;2.67;;
40609;SDS011;26316;55.976;37.140;2023-07-28T12:09:55;2.13;;;2.03;;
40609;SDS011;26316;55.976;37.140;2023-07-28T12:12:25;2.28;;;2.08;;
40609;SDS011;26316;55.976;37.140;2023-07-28T12:14:52;2.20;;;2.00;;
40609;SDS011;26316;55.976;37.140;2023-07-28T12:17:19;2.13;;;1.92;;
40609;SDS011;26316;55.976;37.140;2023-07-28T12:22:42;2.00;;;1.90;;
40609;SDS011;26316;55.976;37.140;2023-07-28T12:25:08;2.15;;;1.95;;
40609;SDS011;26316;55.976;37.140;2023-07-28T12:27:35;1.73;;;1.50;;
40609;SDS011;26316;55.976;37.140;2023-07-28T12:30:01;4.07;;;1.77;;
40609;SDS011;26316;55.976;37.140;2023-07-28T12:32:31;1.88;;;1.65;;
40609;SDS011;26316;55.976;37.140;2023-07-28T12:34:57;1.52;;;1.42;;
40609;SDS011;26316;55.976;37.140;2023-07-28T12:37:23;2.00;;;1.65;;
40609;SDS011;26316;55.976;37.140;2023-07-28T12:39:49;1.50;;;1.40;;
40609;SDS011;26316;55.976;37.140;2023-07-28T12:42:15;2.40;;;1.75;;
40609;SDS011;26316;55.976;37.140;2023-07-28T12:44:41;1.95;;;1.55;;
40609;SDS011;26316;55.976;37.140;2023-07-28T12:47:07;2.40;;;1.10;;
40609;SDS011;26316;55.976;37.140;2023-07-28T12:49:33;2.03;;;1.50;;
40609;SDS011;26316;55.976;37.140;2023-07-28T12:52:00;2.97;;;1.88;;
40609;SDS011;26316;55.976;37.140;2023-07-28T12:54:29;2.25;;;1.55;;
40609;SDS011;26316;55.976;37.140;2023-07-28T12:56:55;1.50;;;1.40;;
40609;SDS011;26316;55.976;37.140;2023-07-28T12:59:21;1.85;;;1.10;;
40609;SDS011;26316;55.976;37.140;2023-07-28T13:01:47;3.70;;;1.40;;
40609;SDS011;26316;55.976;37.140;2023-07-28T13:04:13;1.20;;;1.20;;
40609;SDS011;26316;55.976;37.140;2023-07-28T13:06:39;0.93;;;0.80;;
40609;SDS011;26316;55.976;37.140;2023-07-28T13:09:07;3.40;;;1.20;;
40609;SDS011;26316;55.976;37.140;2023-07-28T13:11:36;2.08;;;1.20;;
40609;SDS011;26316;55.976;37.140;2023-07-28T13:14:02;1.88;;;1.23;;
40609;SDS011;26316;55.976;37.140;2023-07-28T13:16:28;1.35;;;1.25;;
40609;SDS011;26316;55.976;37.140;2023-07-28T13:18:54;1.23;;;1.02;;
40609;SDS011;26316;55.976;37.140;2023-07-28T13:21:20;1.83;;;1.05;;
40609;SDS011;26316;55.976;37.140;2023-07-28T13:23:46;9.38;;;1.23;;
40609;SDS011;26316;55.976;37.140;2023-07-28T13:26:12;1.27;;;1.10;;
40609;SDS011;26316;55.976;37.140;2023-07-28T13:28:38;0.80;;;0.80;;
40609;SDS011;26316;55.976;37.140;2023-07-28T13:31:05;1.98;;;0.95;;
40609;SDS011;26316;55.976;37.140;2023-07-28T13:33:30;1.33;;;1.13;;
40609;SDS011;26316;55.976;37.140;2023-07-28T13:35:56;2.10;;;0.90;;
40609;SDS011;26316;55.976;37.140;2023-07-28T13:38:22;4.43;;;0.75;;
40609;SDS011;26316;55.976;37.140;2023-07-28T13:40:47;2.45;;;1.08;;
40609;SDS011;26316;55.976;37.140;2023-07-28T13:43:13;0.80;;;0.80;;
40609;SDS011;26316;55.976;37.140;2023-07-28T13:45:39;4.88;;;0.90;;
40609;SDS011;26316;55.976;37.140;2023-07-28T13:48:04;0.75;;;0.75;;
40609;SDS011;26316;55.976;37.140;2023-07-28T13:50:30;5.40;;;0.88;;
40609;SDS011;26316;55.976;37.140;2023-07-28T13:52:56;1.10;;;0.80;;
40609;SDS011;26316;55.976;37.140;2023-07-28T13:55:22;6.38;;;1.23;;
40609;SDS011;26316;55.976;37.140;2023-07-28T13:57:48;6.47;;;1.20;;
40609;SDS011;26316;55.976;37.140;2023-07-28T14:00:14;3.53;;;1.20;;
40609;SDS011;26316;55.976;37.140;2023-07-28T14:02:40;6.93;;;1.35;;
40609;SDS011;26316;55.976;37.140;2023-07-28T14:05:06;5.63;;;1.10;;
40609;SDS011;26316;55.976;37.140;2023-07-28T14:07:33;4.30;;;1.35;;
40609;SDS011;26316;55.976;37.140;2023-07-28T14:10:02;8.45;;;1.30;;
40609;SDS011;26316;55.976;37.140;2023-07-28T14:12:31;7.75;;;1.75;;
40609;SDS011;26316;55.976;37.140;2023-07-28T14:14:56;3.33;;;1.52;;
40609;SDS011;26316;55.976;37.140;2023-07-28T14:17:22;8.25;;;1.67;;
40609;SDS011;26316;55.976;37.140;2023-07-28T14:19:48;5.93;;;1.58;;
40609;SDS011;26316;55.976;37.140;2023-07-28T14:22:13;7.72;;;1.67;;
40609;SDS011;26316;55.976;37.140;2023-07-28T14:24:39;3.53;;;1.52;;
40609;SDS011;26316;55.976;37.140;2023-07-28T14:27:05;3.83;;;1.23;;
40609;SDS011;26316;55.976;37.140;2023-07-28T14:29:31;4.53;;;1.25;;
40609;SDS011;26316;55.976;37.140;2023-07-28T14:31:57;2.05;;;1.10;;
40609;SDS011;26316;55.976;37.140;2023-07-28T14:34:22;4.60;;;1.10;;
40609;SDS011;26316;55.976;37.140;2023-07-28T14:36:49;1.77;;;0.90;;
40609;SDS011;26316;55.976;37.140;2023-07-28T14:39:15;0.88;;;0.88;;
40609;SDS011;26316;55.976;37.140;2023-07-28T14:41:41;2.10;;;0.77;;